Time;durP1;ratioP1;P1;durP2;ratioP2;P2;SDS_P1;SDS_P2;PMS_P1;PMS_P2;Temp;Humidity;BMP_temperature;BMP_pressure;BME280_temperature;BME280_humidity;BME280_pressure;Samples;Min_cycle;Max_cycle;Signal;HPM_P1;HPM_P2
2023/04/24 00:05:49;;;;;;;;;;;;;;;9.18;100.00;96895.44;18296315;32;20001;-57
2023/04/24 00:15:52;;;;;;;;;;;;;;;9.24;100.00;96891.63;18295159;32;19957;-57
2023/04/24 00:25:54;;;;;;;;;;;;;;;9.43;100.00;96891.78;18294980;32;20380;-57
2023/04/24 00:35:56;;;;;;;;;;;;;;;9.40;100.00;96900.41;18295212;32;19978;-57
2023/04/24 00:46:01;;;;;;;;;;;;;;;9.40;100.00;96898.53;18293606;32;20013;-57
2023/04/24 00:56:04;;;;;;;;;;;;;;;9.32;100.00;96894.53;18294193;32;19962;-57
2023/04/24 01:06:07;;;;;;;;;;;;;;;9.19;100.00;96903.25;18293740;32;19968;-57
2023/04/24 01:16:09;;;;;;;;;;;;;;;9.06;100.00;96893.06;18293294;32;20291;-57
2023/04/24 01:26:13;;;;;;;;;;;;;;;9.30;100.00;96877.84;18292784;32;20352;-57
2023/04/24 01:36:16;;;;;;;;;;;;;;;9.14;100.00;96879.81;18296028;32;19945;-57
2023/04/24 01:46:18;;;;;;;;;;;;;;;9.11;100.00;96884.94;18302352;32;20273;-57
2023/04/24 01:56:21;;;;;;;;;;;;;;;9.22;100.00;96881.09;18288646;32;19981;-57
2023/04/24 02:06:24;;;;;;;;;;;;;;;9.40;100.00;96881.50;18301476;32;19950;-57
2023/04/24 02:16:30;;;;;;;;;;;;;;;9.45;100.00;96886.88;18301347;32;20020;-57
2023/04/24 02:26:32;;;;;;;;;;;;;;;9.55;100.00;96889.50;18300884;32;19971;-57
2023/04/24 02:36:34;;;;;;;;;;;;;;;9.48;100.00;96892.53;18300282;32;19937;-57
2023/04/24 02:46:37;;;;;;;;;;;;;;;9.52;100.00;96890.06;18298327;32;19945;-57
2023/04/24 02:56:39;;;;;;;;;;;;;;;9.57;100.00;96891.94;18285692;32;19962;-57
2023/04/24 03:06:41;;;;;;;;;;;;;;;9.64;100.00;96904.00;18298397;32;19961;-57
2023/04/24 03:16:43;;;;;;;;;;;;;;;9.63;100.00;96918.59;18298179;32;19945;-57
2023/04/24 03:26:46;;;;;;;;;;;;;;;9.65;100.00;96939.91;18298064;32;20269;-57
2023/04/24 03:36:48;;;;;;;;;;;;;;;9.60;100.00;96958.81;18297134;32;19957;-57
2023/04/24 03:46:51;;;;;;;;;;;;;;;9.38;100.00;96956.53;18296568;32;20358;-57
2023/04/24 03:56:53;;;;;;;;;;;;;;;9.23;100.00;96965.53;18282254;32;20302;-57
2023/04/24 04:06:55;;;;;;;;;;;;;;;9.11;100.00;96977.47;18296375;32;20258;-58
2023/04/24 04:16:57;;;;;;;;;;;;;;;8.99;100.00;96974.28;18295530;32;19953;-57
2023/04/24 04:27:00;;;;;;;;;;;;;;;8.76;100.00;96981.13;18295161;32;19941;-58
2023/04/24 04:37:02;;;;;;;;;;;;;;;8.61;100.00;96995.44;18294615;32;19998;-57
2023/04/24 04:47:05;;;;;;;;;;;;;;;8.59;100.00;97003.00;18280684;32;19957;-57
2023/04/24 04:57:07;;;;;;;;;;;;;;;8.56;100.00;97025.91;18293600;32;20369;-58
2023/04/24 05:07:10;;;;;;;;;;;;;;;8.66;100.00;97025.09;18280018;32;20321;-57
2023/04/24 05:17:12;;;;;;;;;;;;;;;8.69;100.00;97035.31;18303494;32;19996;-57
2023/04/24 05:27:15;;;;;;;;;;;;;;;8.72;100.00;97050.94;18303540;32;20261;-57
2023/04/24 05:37:17;;;;;;;;;;;;;;;8.74;100.00;97074.91;18303608;32;20360;-57
2023/04/24 05:47:21;;;;;;;;;;;;;;;8.78;100.00;97090.28;18302518;32;19962;-57
2023/04/24 05:57:23;;;;;;;;;;;;;;;9.10;100.00;97108.00;18302538;32;20266;-57
2023/04/24 06:07:26;;;;;;;;;;;;;;;9.93;100.00;97123.84;18301799;32;19941;-57
2023/04/24 06:17:28;;;;;;;;;;;;;;;10.29;100.00;97129.81;18301199;32;19949;-57
2023/04/24 06:27:31;;;;;;;;;;;;;;;10.49;100.00;97141.59;18300599;32;19988;-59
2023/04/24 06:37:34;;;;;;;;;;;;;;;10.19;100.00;97159.59;18299923;32;19958;-59
2023/04/24 06:47:37;;;;;;;;;;;;;;;9.10;100.00;97196.16;18285433;32;19954;-59
2023/04/24 06:57:40;;;;;;;;;;;;;;;8.29;100.00;97206.63;18285251;32;20343;-59
2023/04/24 07:07:42;;;;;;;;;;;;;;;8.18;100.00;97210.38;18284774;32;20005;-59
2023/04/24 07:17:45;;;;;;;;;;;;;;;8.70;100.00;97197.81;18298556;32;19937;-59
2023/04/24 07:27:48;;;;;;;;;;;;;;;8.80;100.00;97201.34;18297931;32;20001;-59
2023/04/24 07:37:51;;;;;;;;;;;;;;;9.29;100.00;97216.12;18296713;32;19997;-59
2023/04/24 07:47:54;;;;;;;;;;;;;;;9.95;100.00;97232.41;18296428;32;20000;-59
2023/04/24 07:57:57;;;;;;;;;;;;;;;10.49;100.00;97255.91;18296361;32;19969;-60
2023/04/24 08:07:59;;;;;;;;;;;;;;;10.98;100.00;97265.06;18295738;32;20356;-59
2023/04/24 08:18:02;;;;;;;;;;;;;;;11.24;100.00;97270.25;18295445;32;20348;-58
2023/04/24 08:28:06;;;;;;;;;;;;;;;11.48;100.00;97256.78;18281871;32;20001;-59
2023/04/24 08:38:08;;;;;;;;;;;;;;;11.58;100.00;97277.53;18280822;32;19950;-59
2023/04/24 08:48:10;;;;;;;;;;;;;;;12.03;100.00;97289.00;18301083;32;19964;-59
2023/04/24 08:58:30;;;;;;;;;;;;;;;12.35;100.00;97292.94;18290927;32;19946;-59
2023/04/24 09:08:33;;;;;;;;;;;;;;;12.89;100.00;97303.59;18304725;32;19953;-59
2023/04/24 09:18:35;;;;;;;;;;;;;;;13.44;91.15;97310.37;18304188;32;20256;-59
2023/04/24 09:28:41;;;;;;;;;;;;;;;13.75;91.68;97305.22;18304102;32;20257;-59
2023/04/24 09:38:43;;;;;;;;;;;;;;;14.13;77.49;97326.81;18303263;32;19971;-59
2023/04/24 09:48:46;;;;;;;;;;;;;;;14.79;73.74;97321.13;18302589;32;20321;-59
2023/04/24 09:58:48;;;;;;;;;;;;;;;15.63;65.07;97334.44;18301699;32;19945;-59
2023/04/24 10:08:51;;;;;;;;;;;;;;;15.60;70.29;97333.13;18287807;32;20286;-59
2023/04/24 10:18:54;;;;;;;;;;;;;;;15.02;74.56;97341.03;18301093;32;19949;-59
2023/04/24 10:28:57;;;;;;;;;;;;;;;15.65;82.29;97351.25;18301132;32;19969;-59
2023/04/24 10:39:02;;;;;;;;;;;;;;;15.80;75.63;97363.72;18286586;32;20381;-59
2023/04/24 10:49:08;;;;;;;;;;;;;;;16.92;67.11;97365.31;18299820;32;19957;-60
2023/04/24 10:59:24;;;;;;;;;;;;;;;16.58;69.35;97364.09;18299396;32;19945;-59
2023/04/24 11:09:28;;;;;;;;;;;;;;;17.64;56.77;97364.19;18297984;32;19949;-60
2023/04/24 11:19:31;;;;;;;;;;;;;;;17.83;58.62;97361.91;18284403;32;19941;-59
2023/04/24 11:34:10;;;;;;;;;;;;;;;17.59;53.33;97357.75;18650023;31;19956;-57
2023/04/24 11:44:13;;;;;;;;;;;;;;;17.59;53.33;97357.75;18617862;31;20000;-57
2023/04/24 11:54:16;;;;;;;;;;;;;;;16.70;53.75;97365.41;18617145;31;19975;-58
2023/04/24 12:04:19;;;;;;;;;;;;;;;16.46;54.38;97406.72;18616501;31;19963;-58
2023/04/24 12:14:21;;;;;;;;;;;;;;;15.83;63.55;97398.56;18615888;31;19953;-58
2023/04/24 12:24:24;;;;;;;;;;;;;;;17.05;63.60;97396.34;18614376;31;19988;-59
2023/04/24 12:34:27;;;;;;;;;;;;;;;17.83;65.17;97394.72;18600238;31;19998;-59
2023/04/24 12:44:34;;;;;;;;;;;;;;;17.47;59.18;97408.75;18560614;32;19953;-59
2023/04/24 12:54:36;;;;;;;;;;;;;;;16.87;62.83;97386.47;18569948;32;19971;-59
2023/04/24 13:04:39;;;;;;;;;;;;;;;16.66;62.32;97394.44;18569179;32;19975;-59
2023/04/24 13:14:41;;;;;;;;;;;;;;;17.52;60.66;97378.53;18568817;32;19968;-59
2023/04/24 13:24:44;;;;;;;;;;;;;;;18.12;54.74;97374.09;18567362;31;19953;-59
2023/04/24 13:34:47;;;;;;;;;;;;;;;18.18;49.21;97371.97;18567997;32;19961;-59
2023/04/24 13:44:50;;;;;;;;;;;;;;;17.94;50.41;97348.72;18552972;32;19975;-59
2023/04/24 13:54:53;;;;;;;;;;;;;;;19.27;45.74;97350.44;18565497;32;20034;-59
2023/04/24 14:04:55;;;;;;;;;;;;;;;18.98;45.22;97345.81;18565639;32;19949;-58
2023/04/24 14:14:58;;;;;;;;;;;;;;;17.33;49.31;97326.94;18564995;32;19957;-59
2023/04/24 14:25:01;;;;;;;;;;;;;;;17.20;53.73;97318.56;18564162;31;19948;-58
2023/04/24 14:35:04;;;;;;;;;;;;;;;17.14;51.95;97319.06;18549943;32;19983;-59
2023/04/24 14:45:07;;;;;;;;;;;;;;;17.87;51.19;97324.56;18562873;32;19960;-59
2023/04/24 14:55:10;;;;;;;;;;;;;;;17.14;55.96;97305.41;18562599;32;20351;-59
2023/04/24 15:05:13;;;;;;;;;;;;;;;17.65;51.13;97317.41;18562039;32;20422;-59
2023/04/24 15:15:16;;;;;;;;;;;;;;;17.58;53.92;97317.06;18547733;32;19949;-59
2023/04/24 15:25:19;;;;;;;;;;;;;;;17.75;52.08;97313.50;18561004;31;20297;-59
2023/04/24 15:35:21;;;;;;;;;;;;;;;16.92;53.24;97313.44;18546894;32;19960;-59
2023/04/24 15:45:24;;;;;;;;;;;;;;;16.17;57.00;97307.94;18560451;32;19960;-59
2023/04/24 15:55:27;;;;;;;;;;;;;;;15.89;55.99;97308.13;18545577;32;19953;-59
2023/04/24 16:05:30;;;;;;;;;;;;;;;15.65;53.33;97297.56;18559980;31;19990;-59
2023/04/24 16:15:35;;;;;;;;;;;;;;;15.07;58.77;97296.53;18565340;32;20269;-59
2023/04/24 16:25:38;;;;;;;;;;;;;;;15.16;58.99;97308.31;18571322;31;19956;-59
2023/04/24 16:35:42;;;;;;;;;;;;;;;15.02;58.41;97302.91;18571262;32;20005;-59
2023/04/24 16:45:44;;;;;;;;;;;;;;;16.20;52.18;97310.03;18569983;32;19956;-59
2023/04/24 16:55:46;;;;;;;;;;;;;;;16.55;49.37;97304.69;18556137;32;20358;-59
2023/04/24 17:05:52;;;;;;;;;;;;;;;16.47;53.63;97319.09;18569207;32;19953;-59
2023/04/24 17:15:55;;;;;;;;;;;;;;;15.57;53.10;97314.69;18568715;32;19952;-59
2023/04/24 17:25:58;;;;;;;;;;;;;;;14.17;56.65;97303.34;18567760;31;19977;-59
2023/04/24 17:36:00;;;;;;;;;;;;;;;13.82;62.83;97292.03;18567634;32;19956;-59
2023/04/24 17:46:03;;;;;;;;;;;;;;;13.59;57.62;97299.25;18552820;32;19990;-59
2023/04/24 17:56:06;;;;;;;;;;;;;;;13.17;61.30;97299.09;18551742;31;19978;-59
2023/04/24 18:06:09;;;;;;;;;;;;;;;12.59;69.10;97291.28;18551050;32;19983;-59
2023/04/24 18:16:11;;;;;;;;;;;;;;;12.15;68.59;97285.84;18564964;32;19968;-59
2023/04/24 18:26:15;;;;;;;;;;;;;;;11.65;67.30;97288.03;18549800;32;19969;-59
2023/04/24 18:36:18;;;;;;;;;;;;;;;11.08;77.73;97301.25;18563243;32;19957;-59
2023/04/24 18:46:21;;;;;;;;;;;;;;;10.59;80.05;97295.63;18563162;31;19960;-58
2023/04/24 18:56:23;;;;;;;;;;;;;;;10.17;91.77;97300.38;18562851;32;19997;-59
2023/04/24 19:06:25;;;;;;;;;;;;;;;9.66;98.85;97327.50;18547169;32;19952;-59
2023/04/24 19:16:28;;;;;;;;;;;;;;;9.16;100.00;97330.75;18561866;32;19956;-58
2023/04/24 19:26:31;;;;;;;;;;;;;;;8.95;100.00;97331.84;18545924;31;20037;-58
2023/04/24 19:36:33;;;;;;;;;;;;;;;8.62;100.00;97342.03;18561244;32;19983;-58
2023/04/24 19:46:35;;;;;;;;;;;;;;;8.37;100.00;97345.38;18561651;32;19989;-57
2023/04/24 19:56:38;;;;;;;;;;;;;;;7.95;100.00;97350.59;18573604;32;19968;-58
2023/04/24 20:06:41;;;;;;;;;;;;;;;7.69;100.00;97336.16;18572962;32;19967;-58
2023/04/24 20:16:43;;;;;;;;;;;;;;;7.37;100.00;97337.03;18558397;32;20009;-58
2023/04/24 20:26:45;;;;;;;;;;;;;;;7.10;100.00;97337.88;18571227;31;19967;-58
2023/04/24 20:36:49;;;;;;;;;;;;;;;6.94;100.00;97336.13;18571075;31;19965;-59
2023/04/24 20:46:52;;;;;;;;;;;;;;;6.89;100.00;97338.75;18556064;32;20298;-58
2023/04/24 20:56:56;;;;;;;;;;;;;;;6.96;100.00;97333.97;18569648;32;19991;-58
2023/04/24 21:06:58;;;;;;;;;;;;;;;7.16;100.00;97338.72;18554414;32;20047;-59
2023/04/24 21:17:01;;;;;;;;;;;;;;;7.28;100.00;97322.44;18569122;32;19979;-59
2023/04/24 21:27:04;;;;;;;;;;;;;;;7.38;100.00;97322.50;18567989;31;20358;-58
2023/04/24 21:37:06;;;;;;;;;;;;;;;7.42;100.00;97312.03;18567228;32;20000;-58
2023/04/24 21:47:08;;;;;;;;;;;;;;;7.50;100.00;97313.44;18566916;32;19957;-59
2023/04/24 21:57:11;;;;;;;;;;;;;;;7.50;100.00;97313.44;18566403;32;20285;-59
2023/04/24 22:07:13;;;;;;;;;;;;;;;7.48;100.00;97302.91;18565711;32;19960;-58
2023/04/24 22:17:16;;;;;;;;;;;;;;;7.51;100.00;97296.22;18564306;32;20282;-59
2023/04/24 22:27:18;;;;;;;;;;;;;;;7.41;100.00;97292.41;18563980;32;19979;-59
2023/04/24 22:37:20;;;;;;;;;;;;;;;7.38;100.00;97276.75;18564479;32;20294;-58
2023/04/24 22:47:22;;;;;;;;;;;;;;;7.37;100.00;97267.09;18563377;32;19961;-58
2023/04/24 22:57:25;;;;;;;;;;;;;;;7.47;100.00;97283.28;18562702;32;20408;-59
2023/04/24 23:07:27;;;;;;;;;;;;;;;7.59;100.00;97266.97;18562187;32;19949;-58
2023/04/24 23:17:30;;;;;;;;;;;;;;;7.48;100.00;97273.31;18562248;32;19964;-58
2023/04/24 23:27:32;;;;;;;;;;;;;;;7.43;100.00;97271.44;18560966;32;19990;-58
2023/04/24 23:37:37;;;;;;;;;;;;;;;7.35;100.00;97263.84;18561082;32;20295;-58
2023/04/24 23:47:39;;;;;;;;;;;;;;;7.35;100.00;97258.47;18560803;32;20333;-59
2023/04/24 23:57:42;;;;;;;;;;;;;;;7.41;100.00;97262.00;18560475;32;19971;-59
